sensor_id;sensor_type;location;lat;lon;timestamp;P1;durP1;ratioP1;P2;durP2;ratioP2
52067;SDS011;60237;52.338;21.228;2023-09-18T00:01:47;825.20;;;740.88;;
52067;SDS011;60237;52.338;21.228;2023-09-18T00:04:14;813.80;;;732.67;;
52067;SDS011;60237;52.338;21.228;2023-09-18T00:06:41;826.15;;;742.17;;
52067;SDS011;60237;52.338;21.228;2023-09-18T00:09:07;817.58;;;733.05;;
52067;SDS011;60237;52.338;21.228;2023-09-18T00:11:38;816.70;;;731.83;;
52067;SDS011;60237;52.338;21.228;2023-09-18T00:14:05;826.22;;;742.22;;
52067;SDS011;60237;52.338;21.228;2023-09-18T00:16:31;802.17;;;719.30;;
52067;SDS011;60237;52.338;21.228;2023-09-18T00:19:13;800.92;;;719.22;;
52067;SDS011;60237;52.338;21.228;2023-09-18T00:21:40;808.05;;;723.75;;
52067;SDS011;60237;52.338;21.228;2023-09-18T00:24:06;799.13;;;716.22;;
52067;SDS011;60237;52.338;21.228;2023-09-18T00:26:34;813.22;;;729.28;;
52067;SDS011;60237;52.338;21.228;2023-09-18T00:29:01;795.95;;;714.13;;
52067;SDS011;60237;52.338;21.228;2023-09-18T00:31:28;800.25;;;716.92;;
52067;SDS011;60237;52.338;21.228;2023-09-18T00:33:54;800.15;;;716.60;;
52067;SDS011;60237;52.338;21.228;2023-09-18T00:36:21;801.20;;;717.17;;
52067;SDS011;60237;52.338;21.228;2023-09-18T00:38:48;803.40;;;720.80;;
52067;SDS011;60237;52.338;21.228;2023-09-18T00:41:14;805.50;;;722.45;;
52067;SDS011;60237;52.338;21.228;2023-09-18T00:43:41;794.60;;;709.22;;
52067;SDS011;60237;52.338;21.228;2023-09-18T00:46:08;783.33;;;701.35;;
52067;SDS011;60237;52.338;21.228;2023-09-18T00:48:35;782.60;;;699.38;;
52067;SDS011;60237;52.338;21.228;2023-09-18T00:51:01;781.85;;;699.42;;
52067;SDS011;60237;52.338;21.228;2023-09-18T00:53:28;777.00;;;695.75;;
52067;SDS011;60237;52.338;21.228;2023-09-18T00:55:56;795.78;;;712.40;;
52067;SDS011;60237;52.338;21.228;2023-09-18T00:58:24;776.35;;;694.97;;
52067;SDS011;60237;52.338;21.228;2023-09-18T01:00:52;780.13;;;696.92;;
52067;SDS011;60237;52.338;21.228;2023-09-18T01:03:19;781.83;;;698.35;;
52067;SDS011;60237;52.338;21.228;2023-09-18T01:05:47;769.78;;;689.85;;
52067;SDS011;60237;52.338;21.228;2023-09-18T01:08:14;775.42;;;694.00;;
52067;SDS011;60237;52.338;21.228;2023-09-18T01:10:44;783.92;;;699.58;;
52067;SDS011;60237;52.338;21.228;2023-09-18T01:13:18;764.60;;;683.75;;
52067;SDS011;60237;52.338;21.228;2023-09-18T01:18:33;765.72;;;683.58;;
52067;SDS011;60237;52.338;21.228;2023-09-18T01:20:59;753.78;;;672.08;;
52067;SDS011;60237;52.338;21.228;2023-09-18T01:23:26;750.88;;;671.00;;
52067;SDS011;60237;52.338;21.228;2023-09-18T01:25:53;758.90;;;676.20;;
52067;SDS011;60237;52.338;21.228;2023-09-18T01:28:19;757.97;;;676.67;;
52067;SDS011;60237;52.338;21.228;2023-09-18T01:30:46;745.78;;;664.42;;
52067;SDS011;60237;52.338;21.228;2023-09-18T01:33:13;775.28;;;668.45;;
52067;SDS011;60237;52.338;21.228;2023-09-18T01:35:40;755.33;;;673.70;;
52067;SDS011;60237;52.338;21.228;2023-09-18T01:38:06;752.78;;;670.95;;
52067;SDS011;60237;52.338;21.228;2023-09-18T01:40:37;755.72;;;672.05;;
52067;SDS011;60237;52.338;21.228;2023-09-18T01:43:04;743.72;;;663.53;;
52067;SDS011;60237;52.338;21.228;2023-09-18T01:45:30;741.40;;;659.47;;
52067;SDS011;60237;52.338;21.228;2023-09-18T01:47:58;752.15;;;670.17;;
52067;SDS011;60237;52.338;21.228;2023-09-18T01:50:25;729.58;;;647.85;;
52067;SDS011;60237;52.338;21.228;2023-09-18T01:52:51;741.05;;;658.10;;
52067;SDS011;60237;52.338;21.228;2023-09-18T01:55:18;738.17;;;657.85;;
52067;SDS011;60237;52.338;21.228;2023-09-18T01:57:45;754.28;;;673.15;;
52067;SDS011;60237;52.338;21.228;2023-09-18T02:00:12;752.85;;;667.33;;
52067;SDS011;60237;52.338;21.228;2023-09-18T02:05:48;737.17;;;655.40;;
52067;SDS011;60237;52.338;21.228;2023-09-18T02:08:15;741.47;;;660.40;;
52067;SDS011;60237;52.338;21.228;2023-09-18T02:10:42;760.45;;;663.67;;
52067;SDS011;60237;52.338;21.228;2023-09-18T02:13:09;736.33;;;656.08;;
52067;SDS011;60237;52.338;21.228;2023-09-18T02:15:37;747.40;;;666.40;;
52067;SDS011;60237;52.338;21.228;2023-09-18T02:18:05;744.47;;;663.05;;
52067;SDS011;60237;52.338;21.228;2023-09-18T02:20:39;749.72;;;667.40;;
52067;SDS011;60237;52.338;21.228;2023-09-18T02:23:06;753.97;;;672.78;;
52067;SDS011;60237;52.338;21.228;2023-09-18T02:25:33;761.33;;;678.63;;
52067;SDS011;60237;52.338;21.228;2023-09-18T02:27:59;736.58;;;655.50;;
52067;SDS011;60237;52.338;21.228;2023-09-18T02:30:26;744.40;;;664.08;;
52067;SDS011;60237;52.338;21.228;2023-09-18T02:32:53;736.72;;;657.47;;
52067;SDS011;60237;52.338;21.228;2023-09-18T02:35:20;750.13;;;668.63;;
52067;SDS011;60237;52.338;21.228;2023-09-18T02:37:47;775.47;;;673.05;;
52067;SDS011;60237;52.338;21.228;2023-09-18T02:40:13;741.17;;;660.42;;
52067;SDS011;60237;52.338;21.228;2023-09-18T02:42:40;734.60;;;655.20;;
52067;SDS011;60237;52.338;21.228;2023-09-18T02:45:07;732.47;;;654.10;;
52067;SDS011;60237;52.338;21.228;2023-09-18T02:47:35;751.00;;;665.97;;
52067;SDS011;60237;52.338;21.228;2023-09-18T02:50:04;737.97;;;657.40;;
52067;SDS011;60237;52.338;21.228;2023-09-18T02:52:31;734.78;;;655.28;;
52067;SDS011;60237;52.338;21.228;2023-09-18T02:54:58;738.88;;;657.70;;
52067;SDS011;60237;52.338;21.228;2023-09-18T02:57:25;734.38;;;654.00;;
52067;SDS011;60237;52.338;21.228;2023-09-18T02:59:52;739.05;;;658.50;;
52067;SDS011;60237;52.338;21.228;2023-09-18T03:02:18;736.20;;;655.20;;
52067;SDS011;60237;52.338;21.228;2023-09-18T03:04:45;752.63;;;667.15;;
52067;SDS011;60237;52.338;21.228;2023-09-18T03:07:12;746.65;;;666.38;;
52067;SDS011;60237;52.338;21.228;2023-09-18T03:09:39;750.35;;;670.58;;
52067;SDS011;60237;52.338;21.228;2023-09-18T03:12:06;732.50;;;653.80;;
52067;SDS011;60237;52.338;21.228;2023-09-18T03:14:33;738.92;;;659.40;;
52067;SDS011;60237;52.338;21.228;2023-09-18T03:16:59;754.00;;;670.20;;
52067;SDS011;60237;52.338;21.228;2023-09-18T03:19:26;753.38;;;672.30;;
52067;SDS011;60237;52.338;21.228;2023-09-18T03:21:53;742.97;;;663.42;;
52067;SDS011;60237;52.338;21.228;2023-09-18T03:24:20;742.15;;;662.47;;
52067;SDS011;60237;52.338;21.228;2023-09-18T03:26:47;751.13;;;670.40;;
52067;SDS011;60237;52.338;21.228;2023-09-18T03:29:13;745.58;;;664.85;;
52067;SDS011;60237;52.338;21.228;2023-09-18T03:31:40;755.45;;;673.47;;
52067;SDS011;60237;52.338;21.228;2023-09-18T03:34:07;749.22;;;669.85;;
52067;SDS011;60237;52.338;21.228;2023-09-18T03:36:34;751.90;;;672.38;;
52067;SDS011;60237;52.338;21.228;2023-09-18T03:39:02;761.42;;;678.08;;
52067;SDS011;60237;52.338;21.228;2023-09-18T03:41:31;756.13;;;675.63;;
52067;SDS011;60237;52.338;21.228;2023-09-18T03:44:01;745.97;;;666.10;;
52067;SDS011;60237;52.338;21.228;2023-09-18T03:46:28;759.85;;;678.80;;
52067;SDS011;60237;52.338;21.228;2023-09-18T03:48:55;755.28;;;675.15;;
52067;SDS011;60237;52.338;21.228;2023-09-18T03:51:24;771.95;;;689.83;;
52067;SDS011;60237;52.338;21.228;2023-09-18T03:53:50;755.40;;;673.83;;
52067;SDS011;60237;52.338;21.228;2023-09-18T03:56:18;754.72;;;673.72;;
52067;SDS011;60237;52.338;21.228;2023-09-18T03:58:44;773.75;;;689.75;;
52067;SDS011;60237;52.338;21.228;2023-09-18T04:01:16;775.88;;;687.03;;
52067;SDS011;60237;52.338;21.228;2023-09-18T04:03:43;752.90;;;673.15;;
52067;SDS011;60237;52.338;21.228;2023-09-18T04:06:10;766.30;;;686.60;;
52067;SDS011;60237;52.338;21.228;2023-09-18T04:08:36;755.58;;;675.63;;
52067;SDS011;60237;52.338;21.228;2023-09-18T04:11:03;767.97;;;685.50;;
52067;SDS011;60237;52.338;21.228;2023-09-18T04:13:31;762.10;;;681.05;;
52067;SDS011;60237;52.338;21.228;2023-09-18T04:15:57;766.42;;;685.88;;
52067;SDS011;60237;52.338;21.228;2023-09-18T04:18:27;763.53;;;683.97;;
52067;SDS011;60237;52.338;21.228;2023-09-18T04:20:54;775.35;;;694.20;;
52067;SDS011;60237;52.338;21.228;2023-09-18T04:25:49;784.55;;;701.13;;
52067;SDS011;60237;52.338;21.228;2023-09-18T04:28:16;770.25;;;689.95;;
52067;SDS011;60237;52.338;21.228;2023-09-18T04:30:43;785.03;;;703.25;;
52067;SDS011;60237;52.338;21.228;2023-09-18T04:33:11;781.38;;;700.05;;
52067;SDS011;60237;52.338;21.228;2023-09-18T04:35:39;775.42;;;694.13;;
52067;SDS011;60237;52.338;21.228;2023-09-18T04:38:07;775.00;;;693.22;;
52067;SDS011;60237;52.338;21.228;2023-09-18T04:40:35;780.88;;;698.72;;
52067;SDS011;60237;52.338;21.228;2023-09-18T04:43:04;784.42;;;702.75;;
52067;SDS011;60237;52.338;21.228;2023-09-18T04:45:31;782.45;;;701.05;;
52067;SDS011;60237;52.338;21.228;2023-09-18T04:47:58;787.20;;;704.70;;
52067;SDS011;60237;52.338;21.228;2023-09-18T04:50:25;772.60;;;691.17;;
52067;SDS011;60237;52.338;21.228;2023-09-18T04:52:53;802.17;;;717.78;;
52067;SDS011;60237;52.338;21.228;2023-09-18T04:55:21;795.65;;;711.47;;
52067;SDS011;60237;52.338;21.228;2023-09-18T04:57:48;796.42;;;714.17;;
52067;SDS011;60237;52.338;21.228;2023-09-18T05:00:15;793.00;;;708.50;;
52067;SDS011;60237;52.338;21.228;2023-09-18T05:02:47;792.00;;;709.88;;
52067;SDS011;60237;52.338;21.228;2023-09-18T05:05:14;790.70;;;707.25;;
52067;SDS011;60237;52.338;21.228;2023-09-18T05:07:41;792.15;;;707.90;;
52067;SDS011;60237;52.338;21.228;2023-09-18T05:10:08;794.55;;;712.38;;
52067;SDS011;60237;52.338;21.228;2023-09-18T05:12:37;809.95;;;726.63;;
52067;SDS011;60237;52.338;21.228;2023-09-18T05:15:04;813.22;;;729.50;;
52067;SDS011;60237;52.338;21.228;2023-09-18T05:17:40;792.15;;;710.05;;
52067;SDS011;60237;52.338;21.228;2023-09-18T05:20:09;780.17;;;700.60;;
52067;SDS011;60237;52.338;21.228;2023-09-18T05:22:38;817.28;;;731.42;;
52067;SDS011;60237;52.338;21.228;2023-09-18T05:25:05;813.03;;;727.92;;
52067;SDS011;60237;52.338;21.228;2023-09-18T05:27:33;818.53;;;734.63;;
52067;SDS011;60237;52.338;21.228;2023-09-18T05:30:00;815.70;;;733.08;;
52067;SDS011;60237;52.338;21.228;2023-09-18T05:32:26;828.22;;;744.25;;
52067;SDS011;60237;52.338;21.228;2023-09-18T05:34:53;832.58;;;745.78;;
52067;SDS011;60237;52.338;21.228;2023-09-18T05:37:21;816.53;;;733.28;;
52067;SDS011;60237;52.338;21.228;2023-09-18T05:39:48;823.83;;;740.45;;
52067;SDS011;60237;52.338;21.228;2023-09-18T05:42:15;827.72;;;743.28;;
52067;SDS011;60237;52.338;21.228;2023-09-18T05:44:42;829.78;;;746.72;;
52067;SDS011;60237;52.338;21.228;2023-09-18T05:47:09;852.75;;;768.10;;
52067;SDS011;60237;52.338;21.228;2023-09-18T05:49:36;856.95;;;770.45;;
52067;SDS011;60237;52.338;21.228;2023-09-18T05:52:02;847.80;;;763.00;;
52067;SDS011;60237;52.338;21.228;2023-09-18T05:54:30;851.42;;;767.00;;
52067;SDS011;60237;52.338;21.228;2023-09-18T05:56:56;858.05;;;774.25;;
52067;SDS011;60237;52.338;21.228;2023-09-18T05:59:23;871.38;;;785.42;;
52067;SDS011;60237;52.338;21.228;2023-09-18T06:01:49;946.90;;;779.03;;
52067;SDS011;60237;52.338;21.228;2023-09-18T06:04:17;866.75;;;779.00;;
52067;SDS011;60237;52.338;21.228;2023-09-18T06:06:44;883.67;;;798.70;;
52067;SDS011;60237;52.338;21.228;2023-09-18T06:09:10;873.05;;;788.13;;
52067;SDS011;60237;52.338;21.228;2023-09-18T06:11:37;871.58;;;787.63;;
52067;SDS011;60237;52.338;21.228;2023-09-18T06:14:04;881.45;;;796.05;;
52067;SDS011;60237;52.338;21.228;2023-09-18T06:16:30;907.70;;;820.92;;
52067;SDS011;60237;52.338;21.228;2023-09-18T06:18:57;919.60;;;827.95;;
52067;SDS011;60237;52.338;21.228;2023-09-18T06:21:26;1999.90;;;907.55;;
52067;SDS011;60237;52.338;21.228;2023-09-18T06:23:53;1005.10;;;835.05;;
52067;SDS011;60237;52.338;21.228;2023-09-18T06:26:19;951.75;;;856.33;;
52067;SDS011;60237;52.338;21.228;2023-09-18T06:28:46;970.50;;;878.10;;
52067;SDS011;60237;52.338;21.228;2023-09-18T06:31:13;963.33;;;872.67;;
52067;SDS011;60237;52.338;21.228;2023-09-18T06:33:40;959.53;;;870.50;;
52067;SDS011;60237;52.338;21.228;2023-09-18T06:36:06;1031.70;;;899.55;;
52067;SDS011;60237;52.338;21.228;2023-09-18T06:38:33;987.50;;;897.70;;
52067;SDS011;60237;52.338;21.228;2023-09-18T06:40:59;1021.20;;;927.85;;
52067;SDS011;60237;52.338;21.228;2023-09-18T06:43:26;1048.55;;;955.15;;
52067;SDS011;60237;52.338;21.228;2023-09-18T06:45:53;1999.90;;;978.75;;
52067;SDS011;60237;52.338;21.228;2023-09-18T06:48:19;1083.47;;;980.97;;
52067;SDS011;60237;52.338;21.228;2023-09-18T06:50:48;1100.75;;;994.65;;
52067;SDS011;60237;52.338;21.228;2023-09-18T06:53:15;1125.63;;;999.05;;
52067;SDS011;60237;52.338;21.228;2023-09-18T06:55:42;1129.00;;;999.90;;
52067;SDS011;60237;52.338;21.228;2023-09-18T06:58:09;1113.82;;;999.90;;
52067;SDS011;60237;52.338;21.228;2023-09-18T07:00:35;1115.75;;;999.90;;
52067;SDS011;60237;52.338;21.228;2023-09-18T07:03:03;1139.75;;;999.90;;
52067;SDS011;60237;52.338;21.228;2023-09-18T07:05:30;1999.90;;;973.35;;
52067;SDS011;60237;52.338;21.228;2023-09-18T07:07:57;1999.90;;;974.38;;
52067;SDS011;60237;52.338;21.228;2023-09-18T07:10:24;1999.90;;;999.90;;
52067;SDS011;60237;52.338;21.228;2023-09-18T07:12:51;1999.90;;;999.90;;
52067;SDS011;60237;52.338;21.228;2023-09-18T07:15:19;1086.70;;;978.45;;
52067;SDS011;60237;52.338;21.228;2023-09-18T07:17:46;1999.90;;;975.65;;
52067;SDS011;60237;52.338;21.228;2023-09-18T07:20:15;1999.90;;;957.50;;
52067;SDS011;60237;52.338;21.228;2023-09-18T07:22:46;1185.95;;;964.08;;
52067;SDS011;60237;52.338;21.228;2023-09-18T07:25:14;1999.90;;;957.55;;
52067;SDS011;60237;52.338;21.228;2023-09-18T07:27:41;1999.90;;;996.65;;
52067;SDS011;60237;52.338;21.228;2023-09-18T07:30:11;1071.53;;;955.17;;
52067;SDS011;60237;52.338;21.228;2023-09-18T07:32:41;1045.35;;;950.00;;
52067;SDS011;60237;52.338;21.228;2023-09-18T07:35:09;1053.22;;;955.40;;
52067;SDS011;60237;52.338;21.228;2023-09-18T07:37:36;1036.15;;;944.17;;
52067;SDS011;60237;52.338;21.228;2023-09-18T07:40:04;1038.65;;;946.15;;
52067;SDS011;60237;52.338;21.228;2023-09-18T07:42:30;1042.85;;;950.63;;
52067;SDS011;60237;52.338;21.228;2023-09-18T07:44:57;1042.50;;;949.70;;
52067;SDS011;60237;52.338;21.228;2023-09-18T07:47:25;1034.78;;;942.45;;
52067;SDS011;60237;52.338;21.228;2023-09-18T07:49:52;1034.75;;;940.58;;
52067;SDS011;60237;52.338;21.228;2023-09-18T07:52:20;1999.90;;;995.47;;
52067;SDS011;60237;52.338;21.228;2023-09-18T07:54:47;1042.78;;;929.05;;
52067;SDS011;60237;52.338;21.228;2023-09-18T07:57:15;1040.07;;;928.17;;
52067;SDS011;60237;52.338;21.228;2023-09-18T07:59:42;1028.72;;;935.05;;
52067;SDS011;60237;52.338;21.228;2023-09-18T08:02:09;1028.35;;;934.28;;
52067;SDS011;60237;52.338;21.228;2023-09-18T08:04:36;1030.47;;;939.78;;
52067;SDS011;60237;52.338;21.228;2023-09-18T08:07:03;1036.18;;;943.85;;
52067;SDS011;60237;52.338;21.228;2023-09-18T08:09:32;1022.50;;;932.78;;
52067;SDS011;60237;52.338;21.228;2023-09-18T08:12:02;1024.70;;;932.28;;
52067;SDS011;60237;52.338;21.228;2023-09-18T08:14:29;1020.90;;;930.33;;
52067;SDS011;60237;52.338;21.228;2023-09-18T08:16:57;1035.35;;;942.72;;
52067;SDS011;60237;52.338;21.228;2023-09-18T08:19:27;1029.40;;;938.72;;
52067;SDS011;60237;52.338;21.228;2023-09-18T08:21:53;1028.10;;;937.35;;
52067;SDS011;60237;52.338;21.228;2023-09-18T08:24:21;1031.03;;;940.95;;
52067;SDS011;60237;52.338;21.228;2023-09-18T08:26:47;1038.50;;;946.83;;
52067;SDS011;60237;52.338;21.228;2023-09-18T08:29:14;1039.10;;;947.33;;
52067;SDS011;60237;52.338;21.228;2023-09-18T08:31:42;1045.07;;;949.97;;
52067;SDS011;60237;52.338;21.228;2023-09-18T08:34:08;1032.55;;;942.53;;
52067;SDS011;60237;52.338;21.228;2023-09-18T08:36:35;1031.25;;;940.33;;
52067;SDS011;60237;52.338;21.228;2023-09-18T08:39:02;1040.10;;;946.38;;
52067;SDS011;60237;52.338;21.228;2023-09-18T08:41:32;1039.18;;;947.25;;
52067;SDS011;60237;52.338;21.228;2023-09-18T08:44:00;1040.43;;;946.80;;
52067;SDS011;60237;52.338;21.228;2023-09-18T08:46:27;1042.93;;;950.78;;
52067;SDS011;60237;52.338;21.228;2023-09-18T08:48:59;1041.30;;;948.85;;
52067;SDS011;60237;52.338;21.228;2023-09-18T08:51:26;1051.43;;;957.88;;
52067;SDS011;60237;52.338;21.228;2023-09-18T08:53:54;1051.97;;;958.17;;
52067;SDS011;60237;52.338;21.228;2023-09-18T08:56:21;1052.95;;;959.45;;
52067;SDS011;60237;52.338;21.228;2023-09-18T08:58:49;1047.95;;;953.42;;
52067;SDS011;60237;52.338;21.228;2023-09-18T09:01:16;1066.13;;;959.08;;
52067;SDS011;60237;52.338;21.228;2023-09-18T09:03:42;1058.95;;;967.55;;
52067;SDS011;60237;52.338;21.228;2023-09-18T09:06:12;1046.30;;;955.58;;
52067;SDS011;60237;52.338;21.228;2023-09-18T09:08:38;1056.68;;;964.97;;
52067;SDS011;60237;52.338;21.228;2023-09-18T09:11:05;1066.70;;;962.55;;
52067;SDS011;60237;52.338;21.228;2023-09-18T09:13:32;1059.32;;;966.78;;
52067;SDS011;60237;52.338;21.228;2023-09-18T09:16:11;1053.43;;;961.05;;
52067;SDS011;60237;52.338;21.228;2023-09-18T09:18:49;1052.10;;;959.05;;
52067;SDS011;60237;52.338;21.228;2023-09-18T09:21:17;1053.65;;;961.78;;
52067;SDS011;60237;52.338;21.228;2023-09-18T09:23:50;1063.40;;;969.92;;
52067;SDS011;60237;52.338;21.228;2023-09-18T09:26:21;1067.00;;;973.20;;
52067;SDS011;60237;52.338;21.228;2023-09-18T09:28:49;1075.18;;;978.15;;
52067;SDS011;60237;52.338;21.228;2023-09-18T09:31:24;1067.00;;;972.42;;
52067;SDS011;60237;52.338;21.228;2023-09-18T09:33:52;1065.35;;;972.25;;
52067;SDS011;60237;52.338;21.228;2023-09-18T09:36:25;1068.00;;;975.97;;
52067;SDS011;60237;52.338;21.228;2023-09-18T09:38:55;1071.13;;;977.00;;
52067;SDS011;60237;52.338;21.228;2023-09-18T09:41:24;1075.95;;;980.13;;
52067;SDS011;60237;52.338;21.228;2023-09-18T09:43:54;1081.95;;;984.33;;
52067;SDS011;60237;52.338;21.228;2023-09-18T09:46:23;1075.97;;;981.28;;
52067;SDS011;60237;52.338;21.228;2023-09-18T09:48:59;1081.25;;;989.00;;
52067;SDS011;60237;52.338;21.228;2023-09-18T09:51:26;1076.22;;;980.25;;
52067;SDS011;60237;52.338;21.228;2023-09-18T09:53:53;1082.65;;;982.85;;
52067;SDS011;60237;52.338;21.228;2023-09-18T09:56:19;1091.55;;;996.08;;
52067;SDS011;60237;52.338;21.228;2023-09-18T09:59:01;1097.40;;;998.25;;
52067;SDS011;60237;52.338;21.228;2023-09-18T10:01:32;1090.00;;;995.53;;
52067;SDS011;60237;52.338;21.228;2023-09-18T10:04:04;1090.15;;;995.08;;
52067;SDS011;60237;52.338;21.228;2023-09-18T10:06:34;1095.18;;;997.78;;
52067;SDS011;60237;52.338;21.228;2023-09-18T10:09:04;1102.55;;;999.90;;
52067;SDS011;60237;52.338;21.228;2023-09-18T10:14:12;1089.35;;;993.63;;
52067;SDS011;60237;52.338;21.228;2023-09-18T10:16:45;1101.80;;;998.53;;
52067;SDS011;60237;52.338;21.228;2023-09-18T10:19:23;1110.03;;;999.90;;
52067;SDS011;60237;52.338;21.228;2023-09-18T10:24:24;1094.95;;;998.20;;
52067;SDS011;60237;52.338;21.228;2023-09-18T10:26:55;1112.32;;;999.90;;
52067;SDS011;60237;52.338;21.228;2023-09-18T10:29:23;1114.03;;;999.90;;
52067;SDS011;60237;52.338;21.228;2023-09-18T10:31:51;1133.63;;;999.90;;
52067;SDS011;60237;52.338;21.228;2023-09-18T10:34:19;1122.40;;;999.90;;
52067;SDS011;60237;52.338;21.228;2023-09-18T10:36:46;1123.47;;;999.90;;
52067;SDS011;60237;52.338;21.228;2023-09-18T10:39:13;1129.63;;;999.90;;
52067;SDS011;60237;52.338;21.228;2023-09-18T10:41:46;1127.82;;;999.90;;
52067;SDS011;60237;52.338;21.228;2023-09-18T10:44:14;1119.63;;;999.90;;
52067;SDS011;60237;52.338;21.228;2023-09-18T10:46:40;1120.43;;;999.90;;
52067;SDS011;60237;52.338;21.228;2023-09-18T10:49:07;1116.05;;;999.90;;
52067;SDS011;60237;52.338;21.228;2023-09-18T10:51:34;1126.35;;;999.90;;
52067;SDS011;60237;52.338;21.228;2023-09-18T10:54:01;1136.90;;;999.90;;
52067;SDS011;60237;52.338;21.228;2023-09-18T10:56:28;1133.15;;;999.90;;
52067;SDS011;60237;52.338;21.228;2023-09-18T10:59:01;1139.53;;;999.90;;
52067;SDS011;60237;52.338;21.228;2023-09-18T11:01:32;1128.85;;;999.90;;
52067;SDS011;60237;52.338;21.228;2023-09-18T11:04:06;1129.05;;;999.90;;
52067;SDS011;60237;52.338;21.228;2023-09-18T11:09:23;1122.35;;;999.90;;
52067;SDS011;60237;52.338;21.228;2023-09-18T11:14:41;1132.05;;;999.90;;
52067;SDS011;60237;52.338;21.228;2023-09-18T11:20:04;1133.03;;;999.90;;
52067;SDS011;60237;52.338;21.228;2023-09-18T11:22:40;1128.05;;;999.90;;
52067;SDS011;60237;52.338;21.228;2023-09-18T11:27:57;1135.22;;;999.90;;
52067;SDS011;60237;52.338;21.228;2023-09-18T11:30:24;1137.70;;;999.90;;
52067;SDS011;60237;52.338;21.228;2023-09-18T11:32:51;1138.88;;;999.90;;
52067;SDS011;60237;52.338;21.228;2023-09-18T11:35:19;1146.85;;;999.90;;
52067;SDS011;60237;52.338;21.228;2023-09-18T11:37:45;1143.63;;;999.90;;
52067;SDS011;60237;52.338;21.228;2023-09-18T11:46:55;1145.57;;;999.90;;
52067;SDS011;60237;52.338;21.228;2023-09-18T11:49:22;1145.35;;;999.90;;
52067;SDS011;60237;52.338;21.228;2023-09-18T11:51:50;1138.07;;;999.90;;
52067;SDS011;60237;52.338;21.228;2023-09-18T11:54:17;1136.50;;;999.90;;
52067;SDS011;60237;52.338;21.228;2023-09-18T11:56:44;1127.57;;;999.90;;
52067;SDS011;60237;52.338;21.228;2023-09-18T11:59:11;1152.93;;;999.90;;
52067;SDS011;60237;52.338;21.228;2023-09-18T12:01:39;1131.43;;;999.90;;
52067;SDS011;60237;52.338;21.228;2023-09-18T12:04:13;1133.78;;;999.90;;
52067;SDS011;60237;52.338;21.228;2023-09-18T12:06:40;1129.20;;;999.90;;
52067;SDS011;60237;52.338;21.228;2023-09-18T12:09:07;1140.68;;;999.90;;
52067;SDS011;60237;52.338;21.228;2023-09-18T12:11:35;1141.07;;;999.90;;
52067;SDS011;60237;52.338;21.228;2023-09-18T12:14:02;1146.25;;;999.90;;
52067;SDS011;60237;52.338;21.228;2023-09-18T12:16:31;1136.65;;;999.90;;
52067;SDS011;60237;52.338;21.228;2023-09-18T12:19:04;1133.28;;;999.90;;
52067;SDS011;60237;52.338;21.228;2023-09-18T12:21:33;1143.72;;;999.90;;
52067;SDS011;60237;52.338;21.228;2023-09-18T12:24:06;1999.90;;;996.08;;
52067;SDS011;60237;52.338;21.228;2023-09-18T12:26:32;1135.70;;;999.90;;
52067;SDS011;60237;52.338;21.228;2023-09-18T12:29:00;1146.38;;;999.90;;
52067;SDS011;60237;52.338;21.228;2023-09-18T12:31:26;1134.82;;;999.90;;
52067;SDS011;60237;52.338;21.228;2023-09-18T12:33:53;1130.28;;;999.90;;
52067;SDS011;60237;52.338;21.228;2023-09-18T12:36:20;1134.50;;;999.90;;
52067;SDS011;60237;52.338;21.228;2023-09-18T12:38:57;1131.95;;;999.90;;
52067;SDS011;60237;52.338;21.228;2023-09-18T12:41:24;1132.15;;;999.90;;
52067;SDS011;60237;52.338;21.228;2023-09-18T12:43:57;1146.10;;;999.90;;
52067;SDS011;60237;52.338;21.228;2023-09-18T12:46:24;1143.57;;;999.90;;
52067;SDS011;60237;52.338;21.228;2023-09-18T12:48:50;1142.70;;;999.90;;
52067;SDS011;60237;52.338;21.228;2023-09-18T12:51:18;1134.68;;;999.90;;
52067;SDS011;60237;52.338;21.228;2023-09-18T12:53:58;1140.60;;;999.90;;
52067;SDS011;60237;52.338;21.228;2023-09-18T12:56:25;1140.05;;;999.90;;
52067;SDS011;60237;52.338;21.228;2023-09-18T12:58:52;1140.22;;;999.90;;
52067;SDS011;60237;52.338;21.228;2023-09-18T13:01:37;1135.60;;;999.90;;
52067;SDS011;60237;52.338;21.228;2023-09-18T13:04:04;1135.07;;;999.90;;
52067;SDS011;60237;52.338;21.228;2023-09-18T13:06:32;1136.68;;;999.90;;
52067;SDS011;60237;52.338;21.228;2023-09-18T13:09:19;1153.53;;;999.90;;
52067;SDS011;60237;52.338;21.228;2023-09-18T13:11:56;1145.30;;;999.90;;
52067;SDS011;60237;52.338;21.228;2023-09-18T13:14:23;1144.20;;;999.90;;
52067;SDS011;60237;52.338;21.228;2023-09-18T13:16:50;1157.70;;;999.90;;
52067;SDS011;60237;52.338;21.228;2023-09-18T13:19:17;1154.05;;;999.90;;
52067;SDS011;60237;52.338;21.228;2023-09-18T13:21:50;1148.63;;;999.90;;
52067;SDS011;60237;52.338;21.228;2023-09-18T13:24:28;1148.30;;;999.90;;
52067;SDS011;60237;52.338;21.228;2023-09-18T13:26:55;1165.80;;;999.90;;
52067;SDS011;60237;52.338;21.228;2023-09-18T13:29:23;1158.28;;;999.90;;
52067;SDS011;60237;52.338;21.228;2023-09-18T13:31:51;1169.65;;;999.90;;
52067;SDS011;60237;52.338;21.228;2023-09-18T13:34:17;1148.65;;;999.90;;
52067;SDS011;60237;52.338;21.228;2023-09-18T13:36:45;1157.90;;;999.90;;
52067;SDS011;60237;52.338;21.228;2023-09-18T13:39:12;1155.00;;;999.90;;
52067;SDS011;60237;52.338;21.228;2023-09-18T13:41:39;1146.13;;;999.90;;
52067;SDS011;60237;52.338;21.228;2023-09-18T13:44:07;1145.05;;;999.90;;
52067;SDS011;60237;52.338;21.228;2023-09-18T13:46:34;1146.10;;;999.90;;
52067;SDS011;60237;52.338;21.228;2023-09-18T13:49:05;1154.78;;;999.90;;
52067;SDS011;60237;52.338;21.228;2023-09-18T13:51:32;1153.97;;;999.90;;
52067;SDS011;60237;52.338;21.228;2023-09-18T13:53:59;1139.75;;;999.90;;
52067;SDS011;60237;52.338;21.228;2023-09-18T13:56:26;1150.22;;;999.90;;
52067;SDS011;60237;52.338;21.228;2023-09-18T13:58:55;1152.80;;;999.90;;
52067;SDS011;60237;52.338;21.228;2023-09-18T14:01:22;1143.60;;;999.90;;
52067;SDS011;60237;52.338;21.228;2023-09-18T14:03:51;1138.57;;;999.90;;
52067;SDS011;60237;52.338;21.228;2023-09-18T14:06:18;1131.25;;;999.90;;
52067;SDS011;60237;52.338;21.228;2023-09-18T14:08:45;1135.72;;;999.90;;
52067;SDS011;60237;52.338;21.228;2023-09-18T14:11:11;1133.68;;;999.90;;
52067;SDS011;60237;52.338;21.228;2023-09-18T14:13:40;1136.55;;;999.90;;
52067;SDS011;60237;52.338;21.228;2023-09-18T14:16:08;1125.45;;;999.90;;